Time;durP1;ratioP1;P1;durP2;ratioP2;P2;SDS_P1;SDS_P2;PMS_P1;PMS_P2;Temp;Humidity;BMP_temperature;BMP_pressure;BME280_temperature;BME280_humidity;BME280_pressure;Samples;Min_cycle;Max_cycle;Signal;HPM_P1;HPM_P2
2023/07/06 00:00:00;;;;;;;7.50;5.70;;;13.40;99.90;;;;;;4989714;28;20515;-48
2023/07/06 00:02:26;;;;;;;12.05;6.70;;;13.40;99.90;;;;;;4989836;28;20069;-48
2023/07/06 00:04:52;;;;;;;11.27;5.60;;;13.30;99.90;;;;;;4988650;28;20062;-51
2023/07/06 00:07:21;;;;;;;11.32;6.55;;;13.30;99.90;;;;;;4989365;28;20495;-50
2023/07/06 00:09:50;;;;;;;10.15;6.43;;;13.30;99.90;;;;;;4986222;28;20077;-55
2023/07/06 00:12:18;;;;;;;7.82;5.97;;;13.20;99.90;;;;;;4989752;28;20030;-50
2023/07/06 00:14:44;;;;;;;6.78;6.10;;;13.20;99.90;;;;;;4989392;28;20092;-48
2023/07/06 00:17:15;;;;;;;11.85;7.78;;;13.10;99.90;;;;;;4989304;28;20427;-51
2023/07/06 00:19:41;;;;;;;11.13;7.70;;;13.10;99.90;;;;;;4989062;28;20034;-53
2023/07/06 00:22:08;;;;;;;;;;;13.10;99.90;;;;;;4989622;28;20042;-48
2023/07/06 00:24:33;;;;;;;10.50;6.57;;;13.10;99.90;;;;;;4986779;28;20375;-52
2023/07/06 00:26:59;;;;;;;8.45;6.57;;;13.10;99.90;;;;;;4989085;28;20347;-50
2023/07/06 00:29:27;;;;;;;8.10;5.97;;;13.00;99.90;;;;;;4989246;28;20073;-52
2023/07/06 00:32:03;;;;;;;9.93;6.82;;;13.00;99.90;;;;;;4989370;28;20519;-49
2023/07/06 00:34:32;;;;;;;12.43;7.07;;;13.00;99.90;;;;;;4989218;28;20042;-48
2023/07/06 00:36:57;;;;;;;7.47;5.88;;;13.00;99.90;;;;;;4988077;28;20038;-50
2023/07/06 00:39:23;;;;;;;8.77;5.90;;;12.90;99.90;;;;;;4989183;28;20049;-48
2023/07/06 00:41:49;;;;;;;11.23;7.13;;;12.90;99.90;;;;;;4989125;28;20281;-53
2023/07/06 00:44:53;;;;;;;7.55;5.47;;;12.90;99.90;;;;;;4987560;28;20329;-53
2023/07/06 00:47:31;;;;;;;7.38;5.35;;;12.90;99.90;;;;;;4987426;28;20416;-55
2023/07/06 00:50:20;;;;;;;7.32;6.10;;;12.90;99.90;;;;;;4989095;28;20080;-51
2023/07/06 00:52:52;;;;;;;8.85;6.15;;;12.80;99.90;;;;;;4987973;28;20056;-52
2023/07/06 00:55:20;;;;;;;12.68;6.82;;;12.80;99.90;;;;;;4988580;28;20121;-51
2023/07/06 00:57:52;;;;;;;11.90;6.65;;;12.80;99.90;;;;;;4989415;28;20408;-52
2023/07/06 01:00:21;;;;;;;8.75;5.60;;;12.80;99.90;;;;;;4988843;28;20074;-52
2023/07/06 01:02:51;;;;;;;8.32;6.05;;;12.80;99.90;;;;;;4987440;28;20046;-48
2023/07/06 01:05:18;;;;;;;9.15;5.25;;;12.70;99.90;;;;;;4987465;28;20456;-49
2023/07/06 01:07:46;;;;;;;12.05;5.82;;;12.70;99.90;;;;;;4989185;28;20116;-48
2023/07/06 01:10:13;;;;;;;8.75;5.63;;;12.70;99.90;;;;;;4989210;28;20117;-48
2023/07/06 01:12:39;;;;;;;8.32;6.10;;;12.70;99.90;;;;;;4987880;28;20047;-48
2023/07/06 01:15:06;;;;;;;9.55;5.63;;;12.60;99.90;;;;;;4988610;28;20034;-49
2023/07/06 01:17:55;;;;;;;8.18;5.93;;;12.60;99.90;;;;;;4988808;28;20050;-53
2023/07/06 01:20:27;;;;;;;7.15;6.43;;;12.50;99.90;;;;;;4989390;28;20391;-53
2023/07/06 01:23:13;;;;;;;6.90;5.80;;;12.40;99.90;;;;;;4989307;28;20066;-50
2023/07/06 01:26:00;;;;;;;7.22;6.43;;;12.40;99.90;;;;;;4985902;28;20468;-48
2023/07/06 01:28:51;;;;;;;6.45;5.85;;;12.40;99.90;;;;;;4986348;28;20376;-49
2023/07/06 01:31:37;;;;;;;8.23;6.15;;;12.40;99.90;;;;;;4987814;28;20042;-50
2023/07/06 01:34:24;;;;;;;8.07;6.00;;;12.40;99.90;;;;;;4992109;28;20134;-48
2023/07/06 01:37:02;;;;;;;9.15;6.15;;;12.40;99.90;;;;;;4990622;28;20662;-48
2023/07/06 01:39:28;;;;;;;7.43;6.43;;;12.40;99.90;;;;;;4992536;28;20050;-53
2023/07/06 01:42:12;;;;;;;8.95;7.00;;;12.40;99.90;;;;;;4992005;28;20062;-48
2023/07/06 01:44:41;;;;;;;12.43;7.00;;;12.40;99.90;;;;;;4992032;28;20046;-48
2023/07/06 01:47:08;;;;;;;8.95;5.45;;;12.40;99.90;;;;;;4991605;28;20177;-49
2023/07/06 01:49:34;;;;;;;7.93;5.53;;;12.40;99.90;;;;;;4991043;28;20042;-48
2023/07/06 01:52:06;;;;;;;10.05;7.28;;;12.40;99.90;;;;;;4990469;28;20045;-49
2023/07/06 01:54:44;;;;;;;6.72;5.97;;;12.30;99.90;;;;;;4992149;28;20393;-48
2023/07/06 01:57:25;;;;;;;8.82;6.38;;;12.30;99.90;;;;;;4991653;28;20503;-48
2023/07/06 01:59:55;;;;;;;9.55;6.28;;;12.30;99.90;;;;;;4992281;28;20069;-48
2023/07/06 02:02:21;;;;;;;8.75;6.70;;;12.30;99.90;;;;;;4992391;28;20050;-48
2023/07/06 02:04:47;;;;;;;10.80;5.72;;;12.30;99.90;;;;;;4991917;28;20503;-48
2023/07/06 02:07:16;;;;;;;10.05;6.55;;;12.30;99.90;;;;;;4991744;28;20043;-53
2023/07/06 02:09:51;;;;;;;9.65;7.50;;;12.40;99.90;;;;;;4991971;28;20042;-49
2023/07/06 02:12:18;;;;;;;8.73;6.53;;;12.30;99.90;;;;;;4991214;28;20140;-48
2023/07/06 02:14:44;;;;;;;13.38;7.50;;;12.30;99.90;;;;;;4991058;28;20046;-50
2023/07/06 02:17:11;;;;;;;9.13;7.05;;;12.40;99.90;;;;;;4990281;28;20038;-52
2023/07/06 02:19:38;;;;;;;11.43;7.03;;;12.40;99.90;;;;;;4991557;28;20057;-48
2023/07/06 02:22:04;;;;;;;11.30;8.13;;;12.40;99.90;;;;;;4990121;28;20403;-48
2023/07/06 02:24:30;;;;;;;12.50;8.18;;;12.40;99.90;;;;;;4990950;28;20042;-52
2023/07/06 02:26:56;;;;;;;12.13;7.20;;;12.40;99.90;;;;;;4991182;28;20042;-48
2023/07/06 02:29:24;;;;;;;11.20;8.40;;;12.40;99.90;;;;;;4991539;28;20034;-48
2023/07/06 02:31:50;;;;;;;17.63;8.27;;;12.40;99.90;;;;;;4991528;28;20054;-49
2023/07/06 02:34:24;;;;;;;12.52;8.32;;;12.40;99.90;;;;;;4991707;28;20041;-50
2023/07/06 02:36:51;;;;;;;15.25;8.75;;;12.50;99.90;;;;;;4990069;28;20046;-50
2023/07/06 02:39:17;;;;;;;13.43;8.65;;;12.50;99.90;;;;;;4990898;28;20486;-51
2023/07/06 02:41:43;;;;;;;13.07;7.75;;;12.50;99.90;;;;;;4990154;28;20109;-48
2023/07/06 02:44:08;;;;;;;14.05;8.55;;;12.50;99.90;;;;;;4990334;28;20042;-48
2023/07/06 02:46:34;;;;;;;11.30;8.40;;;12.50;99.90;;;;;;4991205;28;20093;-51
2023/07/06 02:48:59;;;;;;;14.50;8.75;;;12.50;99.90;;;;;;4990445;28;20041;-53
2023/07/06 02:51:25;;;;;;;9.93;8.38;;;12.50;99.90;;;;;;4988788;28;20038;-48
2023/07/06 02:53:50;;;;;;;16.25;9.40;;;12.60;99.90;;;;;;4990136;28;20031;-48
2023/07/06 02:56:16;;;;;;;14.55;9.18;;;12.50;99.90;;;;;;4990971;28;20133;-51
2023/07/06 02:58:42;;;;;;;;;;;12.50;99.90;;;;;;4989972;28;20073;-51
2023/07/06 03:01:08;;;;;;;16.40;8.65;;;12.50;99.90;;;;;;4989218;28;19957;-48
2023/07/06 03:03:34;;;;;;;12.50;8.82;;;12.50;99.90;;;;;;4990520;28;20582;-54
2023/07/06 03:06:01;;;;;;;14.77;9.60;;;12.50;99.90;;;;;;4990476;28;20113;-49
2023/07/06 03:08:27;;;;;;;10.18;8.75;;;12.50;99.90;;;;;;4990288;28;20154;-48
2023/07/06 03:10:53;;;;;;;22.45;9.52;;;12.50;99.90;;;;;;4990803;28;20034;-49
2023/07/06 03:13:18;;;;;;;12.43;8.55;;;12.50;99.90;;;;;;4990807;28;20444;-51
2023/07/06 03:15:50;;;;;;;13.35;9.50;;;12.50;99.90;;;;;;4990054;28;20033;-51
2023/07/06 03:18:18;;;;;;;11.73;8.88;;;12.50;99.90;;;;;;4989143;28;20038;-52
2023/07/06 03:20:48;;;;;;;17.92;9.75;;;12.50;99.90;;;;;;4990761;28;20046;-50
2023/07/06 03:23:13;;;;;;;15.00;9.70;;;12.60;99.90;;;;;;4990163;28;20554;-48
2023/07/06 03:25:39;;;;;;;15.15;10.48;;;12.50;99.90;;;;;;4990163;28;20125;-52
2023/07/06 03:28:04;;;;;;;15.50;10.63;;;12.60;99.90;;;;;;4989372;28;20523;-48
2023/07/06 03:30:31;;;;;;;15.43;10.45;;;12.60;99.90;;;;;;4990347;28;20313;-48
2023/07/06 03:32:59;;;;;;;14.45;10.20;;;12.60;99.90;;;;;;4990232;28;20053;-49
2023/07/06 03:35:26;;;;;;;13.50;9.60;;;12.60;99.90;;;;;;4987670;28;20111;-52
2023/07/06 03:37:58;;;;;;;19.50;12.05;;;12.70;99.90;;;;;;4990347;28;20038;-48
2023/07/06 03:40:27;;;;;;;20.58;12.60;;;12.70;99.90;;;;;;4990207;28;20077;-48
2023/07/06 03:42:56;;;;;;;19.48;12.80;;;12.70;99.90;;;;;;4990073;28;20042;-49
2023/07/06 03:45:22;;;;;;;20.90;12.13;;;12.70;99.90;;;;;;4988749;28;20493;-51
2023/07/06 03:47:50;;;;;;;19.88;13.50;;;12.70;99.90;;;;;;4989594;28;20054;-49
2023/07/06 03:50:18;;;;;;;18.80;13.98;;;12.70;99.90;;;;;;4989756;28;20038;-49
2023/07/06 03:52:44;;;;;;;21.15;14.90;;;12.70;99.90;;;;;;4990240;28;20038;-49
2023/07/06 03:55:15;;;;;;;15.30;12.05;;;12.70;99.90;;;;;;4989069;28;20030;-48
2023/07/06 03:57:43;;;;;;;19.67;13.18;;;12.70;99.90;;;;;;4990089;28;20407;-48
2023/07/06 04:00:16;;;;;;;16.35;13.18;;;12.80;99.90;;;;;;4989434;28;20038;-53
2023/07/06 04:02:42;;;;;;;18.85;13.60;;;12.80;99.90;;;;;;4988364;28;20050;-48
2023/07/06 04:05:08;;;;;;;26.75;15.25;;;12.80;99.90;;;;;;4988022;28;20038;-50
2023/07/06 04:07:33;;;;;;;;;;;12.80;99.90;;;;;;4989910;28;20038;-49
2023/07/06 04:10:00;;;;;;;25.27;14.25;;;12.80;99.90;;;;;;4989431;28;19918;-49
2023/07/06 04:12:26;;;;;;;20.63;14.75;;;12.90;99.90;;;;;;4989162;28;20046;-50
2023/07/06 04:14:54;;;;;;;19.48;14.23;;;12.90;99.90;;;;;;4988518;28;20399;-51
2023/07/06 04:17:19;;;;;;;20.05;15.93;;;12.90;99.90;;;;;;4987947;28;20073;-49
2023/07/06 04:19:45;;;;;;;24.05;16.25;;;12.90;99.90;;;;;;4989761;28;20074;-48
2023/07/06 04:22:10;;;;;;;25.52;16.08;;;13.00;99.90;;;;;;4989431;28;20500;-50
2023/07/06 04:24:36;;;;;;;20.10;15.02;;;13.00;99.90;;;;;;4989110;28;20074;-48
2023/07/06 04:27:02;;;;;;;21.00;15.00;;;13.00;99.90;;;;;;4989177;28;20508;-48
2023/07/06 04:29:29;;;;;;;18.55;14.35;;;13.10;99.90;;;;;;4989272;28;20125;-49
2023/07/06 04:31:55;;;;;;;25.17;15.02;;;13.10;99.90;;;;;;4989053;28;20065;-50
2023/07/06 04:34:21;;;;;;;;;;;13.20;99.90;;;;;;4989611;28;20040;-48
2023/07/06 04:36:47;;;;;;;22.20;14.27;;;13.20;99.90;;;;;;4989422;28;20343;-51
2023/07/06 04:39:13;;;;;;;23.52;15.57;;;13.20;99.90;;;;;;4988667;28;20105;-48
2023/07/06 04:41:39;;;;;;;19.30;15.05;;;13.20;99.90;;;;;;4990016;28;20053;-48
2023/07/06 04:44:04;;;;;;;26.27;15.98;;;13.30;99.90;;;;;;4988579;28;20034;-48
2023/07/06 04:46:30;;;;;;;25.95;14.90;;;13.30;99.90;;;;;;4989190;28;20042;-49
2023/07/06 04:48:56;;;;;;;24.38;14.05;;;13.30;99.90;;;;;;4989198;28;20038;-53
2023/07/06 04:51:21;;;;;;;22.20;14.43;;;13.30;99.90;;;;;;4987544;28;20056;-51
2023/07/06 04:53:48;;;;;;;24.92;14.40;;;13.40;99.90;;;;;;4987852;28;20030;-54
2023/07/06 04:56:14;;;;;;;19.25;14.18;;;13.40;99.90;;;;;;4986916;28;20053;-49
2023/07/06 04:58:41;;;;;;;23.50;14.75;;;13.50;99.90;;;;;;4982534;28;20038;-48
2023/07/06 05:01:07;;;;;;;24.00;14.23;;;13.50;99.90;;;;;;4983326;28;20046;-48
2023/07/06 05:03:35;;;;;;;25.45;14.40;;;13.60;99.90;;;;;;4985666;28;20045;-49
2023/07/06 05:06:04;;;;;;;23.52;14.13;;;13.60;99.90;;;;;;4986212;28;20093;-48
2023/07/06 05:08:31;;;;;;;23.10;13.93;;;13.70;99.90;;;;;;4993343;28;20026;-49
2023/07/06 05:10:57;;;;;;;22.95;13.95;;;13.70;99.90;;;;;;4994031;28;20073;-50
2023/07/06 05:13:23;;;;;;;23.63;14.25;;;13.80;99.90;;;;;;4991498;28;20511;-48
2023/07/06 05:15:49;;;;;;;20.73;13.75;;;13.90;99.90;;;;;;4993962;28;20132;-49
2023/07/06 05:18:19;;;;;;;17.30;12.57;;;13.90;99.90;;;;;;4993427;28;20049;-51
2023/07/06 05:20:45;;;;;;;20.33;13.10;;;14.00;99.90;;;;;;4994235;28;20034;-49
2023/07/06 05:23:12;;;;;;;;;;;14.10;99.90;;;;;;4993917;28;20399;-53
2023/07/06 05:25:38;;;;;;;24.90;12.95;;;14.20;99.90;;;;;;4975061;28;20071;-53
2023/07/06 05:28:04;;;;;;;24.33;12.70;;;14.20;99.90;;;;;;4993002;28;20034;-51
2023/07/06 05:30:29;;;;;;;23.73;13.23;;;14.30;99.90;;;;;;4987645;28;20049;-50
2023/07/06 05:32:55;;;;;;;20.88;13.55;;;14.40;99.90;;;;;;4993506;28;20404;-49
2023/07/06 05:35:23;;;;;;;18.73;12.68;;;14.40;99.90;;;;;;4993050;28;20078;-49
2023/07/06 05:37:48;;;;;;;20.77;12.48;;;14.60;99.90;;;;;;4993460;28;20121;-53
2023/07/06 05:40:14;;;;;;;18.95;12.43;;;14.60;99.90;;;;;;4991904;28;20193;-48
2023/07/06 05:42:40;;;;;;;18.45;13.05;;;14.80;99.90;;;;;;4992591;28;20420;-49
2023/07/06 05:45:08;;;;;;;19.45;12.93;;;14.80;99.90;;;;;;4985944;28;20033;-48
2023/07/06 05:47:33;;;;;;;18.73;12.98;;;14.90;99.90;;;;;;4993534;28;20492;-48
2023/07/06 05:49:59;;;;;;;19.23;11.98;;;14.90;99.90;;;;;;4993463;28;20042;-50
2023/07/06 05:52:26;;;;;;;21.02;12.05;;;15.00;99.90;;;;;;4985270;28;20492;-51
2023/07/06 05:54:52;;;;;;;23.23;12.68;;;15.00;99.90;;;;;;4986003;28;20572;-51
2023/07/06 05:57:19;;;;;;;19.83;11.93;;;15.00;99.90;;;;;;4988284;28;20050;-50
2023/07/06 05:59:46;;;;;;;24.23;13.10;;;15.00;99.90;;;;;;4989769;28;20046;-48
2023/07/06 06:02:16;;;;;;;15.63;12.15;;;15.00;99.90;;;;;;4990918;28;20144;-48
2023/07/06 06:04:41;;;;;;;20.55;11.70;;;15.10;99.90;;;;;;4991745;28;20057;-49
2023/07/06 06:07:09;;;;;;;18.88;11.40;;;15.10;99.90;;;;;;4992074;28;20052;-50
2023/07/06 06:09:35;;;;;;;18.63;12.00;;;15.10;99.90;;;;;;4991883;28;20104;-48
2023/07/06 06:12:04;;;;;;;17.60;12.13;;;15.10;99.90;;;;;;4991213;28;20035;-51
2023/07/06 06:14:31;;;;;;;18.92;11.20;;;15.10;99.90;;;;;;4988248;28;20411;-48
2023/07/06 06:16:57;;;;;;;26.80;13.10;;;15.10;99.90;;;;;;4991361;28;20050;-50
2023/07/06 06:19:22;;;;;;;25.60;12.57;;;15.10;99.90;;;;;;4987357;28;20113;-51
2023/07/06 06:21:53;;;;;;;18.45;12.60;;;15.20;99.90;;;;;;4976129;28;20117;-49
2023/07/06 06:24:19;;;;;;;18.67;11.73;;;15.20;99.90;;;;;;4972990;28;20085;-49
2023/07/06 06:26:44;;;;;;;21.40;14.18;;;15.20;99.90;;;;;;4982835;28;20522;-48
2023/07/06 06:29:10;;;;;;;20.38;12.38;;;15.40;99.90;;;;;;4989710;28;20065;-49
2023/07/06 06:31:38;;;;;;;20.38;13.18;;;15.40;99.90;;;;;;4980859;28;20031;-52
2023/07/06 06:34:04;;;;;;;28.55;13.13;;;15.40;99.90;;;;;;4977618;28;20030;-53
2023/07/06 06:36:30;;;;;;;21.85;13.38;;;15.40;99.90;;;;;;4978785;28;20093;-52
2023/07/06 06:38:56;;;;;;;26.73;13.35;;;15.40;99.90;;;;;;4984407;28;20244;-55
2023/07/06 06:41:22;;;;;;;22.27;12.25;;;15.50;99.90;;;;;;4977512;28;20456;-53
2023/07/06 06:43:48;;;;;;;22.55;12.75;;;15.50;99.90;;;;;;4988439;28;20562;-56
2023/07/06 06:46:15;;;;;;;25.60;13.15;;;15.50;99.90;;;;;;4992340;28;20605;-55
2023/07/06 06:48:41;;;;;;;16.00;11.38;;;15.50;99.90;;;;;;4984154;28;20046;-54
2023/07/06 06:51:10;;;;;;;22.15;12.55;;;15.60;99.90;;;;;;4987760;28;20390;-55
2023/07/06 06:53:39;;;;;;;26.35;13.77;;;15.60;99.90;;;;;;4985752;28;20027;-56
2023/07/06 06:56:07;;;;;;;18.63;13.07;;;15.80;99.90;;;;;;4988006;28;20038;-54
2023/07/06 06:58:33;;;;;;;21.75;14.30;;;15.90;99.90;;;;;;4984610;28;20070;-55
2023/07/06 07:01:00;;;;;;;20.05;12.07;;;15.90;99.90;;;;;;4980889;28;20282;-55
2023/07/06 07:03:29;;;;;;;22.90;13.18;;;16.00;99.90;;;;;;4974346;28;20038;-55
2023/07/06 07:06:11;;;;;;;26.45;13.32;;;16.00;99.90;;;;;;4982298;28;20039;-56
2023/07/06 07:08:49;;;;;;;24.98;12.77;;;16.20;99.90;;;;;;4992140;28;20491;-55
2023/07/06 07:11:19;;;;;;;21.17;12.52;;;16.30;99.90;;;;;;4991415;28;20035;-53
2023/07/06 07:13:47;;;;;;;19.25;13.15;;;16.40;99.90;;;;;;4990365;28;20042;-56
2023/07/06 07:16:12;;;;;;;22.27;12.20;;;16.50;99.90;;;;;;4985039;28;20039;-55
2023/07/06 07:18:39;;;;;;;26.13;12.32;;;16.60;99.90;;;;;;4976410;28;20041;-55
2023/07/06 07:21:06;;;;;;;20.27;12.25;;;16.60;99.90;;;;;;4984389;28;20038;-50
2023/07/06 07:23:40;;;;;;;19.45;11.82;;;16.70;99.90;;;;;;4986823;28;20038;-55
2023/07/06 07:26:10;;;;;;;15.35;11.43;;;16.80;99.90;;;;;;4981483;28;20071;-55
2023/07/06 07:28:37;;;;;;;20.05;11.75;;;16.80;99.90;;;;;;4990997;28;20389;-54
2023/07/06 07:31:03;;;;;;;18.33;11.70;;;16.90;99.90;;;;;;4991909;28;20070;-56
2023/07/06 07:33:29;;;;;;;21.67;10.82;;;16.90;99.90;;;;;;4981691;28;20062;-56
2023/07/06 07:35:57;;;;;;;18.20;10.57;;;16.90;99.90;;;;;;4989136;28;20038;-55
2023/07/06 07:38:23;;;;;;;21.40;10.85;;;16.90;99.90;;;;;;4982168;28;20027;-54
2023/07/06 07:40:55;;;;;;;;;;;16.90;99.90;;;;;;4972849;28;20049;-53
2023/07/06 07:43:25;;;;;;;18.80;10.95;;;16.90;99.90;;;;;;4974850;28;19972;-53
2023/07/06 07:46:04;;;;;;;17.13;10.35;;;16.80;99.90;;;;;;4980866;28;20034;-53
2023/07/06 07:48:33;;;;;;;21.48;11.15;;;16.80;99.90;;;;;;4981092;28;20039;-55
2023/07/06 07:51:02;;;;;;;20.98;10.40;;;16.80;99.90;;;;;;4982671;28;20035;-53
2023/07/06 07:53:32;;;;;;;26.33;11.90;;;16.90;99.90;;;;;;4987673;28;20034;-52
2023/07/06 07:55:59;;;;;;;22.52;10.57;;;17.00;99.90;;;;;;4975399;28;20074;-52
2023/07/06 07:58:26;;;;;;;20.02;12.13;;;17.20;99.90;;;;;;4990943;28;20327;-52
2023/07/06 08:00:55;;;;;;;21.98;11.23;;;17.30;99.90;;;;;;4991256;28;20129;-54
2023/07/06 08:03:21;;;;;;;16.77;10.77;;;17.50;99.90;;;;;;4983063;28;20113;-55
2023/07/06 08:05:47;;;;;;;15.65;10.18;;;17.70;99.90;;;;;;4990885;28;20073;-54
2023/07/06 08:08:13;;;;;;;17.55;10.15;;;17.70;99.90;;;;;;4991394;28;20388;-52
2023/07/06 08:10:40;;;;;;;15.40;10.18;;;17.80;99.90;;;;;;4991064;28;20038;-56
2023/07/06 08:13:09;;;;;;;22.17;11.40;;;17.90;99.90;;;;;;4990777;28;20127;-53
2023/07/06 08:15:38;;;;;;;21.83;10.57;;;18.10;99.90;;;;;;4990840;28;20030;-55
2023/07/06 08:18:06;;;;;;;22.17;10.85;;;18.20;99.90;;;;;;4991065;28;20045;-54
2023/07/06 08:20:32;;;;;;;16.83;9.15;;;18.30;99.90;;;;;;4988540;28;20042;-52
2023/07/06 08:23:07;;;;;;;12.60;10.23;;;18.20;99.90;;;;;;4982697;28;20085;-53
2023/07/06 08:25:37;;;;;;;16.67;10.48;;;18.20;99.90;;;;;;4978058;28;20067;-53
2023/07/06 08:28:05;;;;;;;14.63;10.57;;;18.20;99.90;;;;;;4985989;28;20121;-50
2023/07/06 08:30:32;;;;;;;18.70;10.02;;;18.30;99.90;;;;;;4982564;28;20053;-56
2023/07/06 08:33:00;;;;;;;15.18;9.35;;;18.40;99.90;;;;;;4982101;28;20090;-56
2023/07/06 08:35:28;;;;;;;13.73;8.82;;;18.60;99.90;;;;;;4986845;28;20404;-54
2023/07/06 08:37:54;;;;;;;15.23;8.02;;;18.70;99.90;;;;;;4982197;28;20051;-56
2023/07/06 08:40:21;;;;;;;;;;;18.70;99.90;;;;;;4980855;28;20066;-52
2023/07/06 08:42:47;;;;;;;10.45;8.23;;;18.70;99.90;;;;;;4981749;28;20582;-54
2023/07/06 08:45:19;;;;;;;12.00;7.57;;;18.60;99.90;;;;;;4979228;28;20436;-50
2023/07/06 08:47:47;;;;;;;16.30;7.63;;;18.70;99.90;;;;;;4982905;28;20464;-50
2023/07/06 08:50:15;;;;;;;10.43;7.72;;;18.80;99.90;;;;;;4988199;28;20034;-55
2023/07/06 08:52:42;;;;;;;12.07;7.15;;;18.90;99.90;;;;;;4985229;28;20415;-54
2023/07/06 08:55:17;;;;;;;14.13;8.43;;;18.90;99.90;;;;;;4980922;28;20046;-54
2023/07/06 08:57:46;;;;;;;13.90;8.30;;;19.10;99.90;;;;;;4978531;28;20043;-54
2023/07/06 09:00:15;;;;;;;15.20;7.63;;;19.30;99.90;;;;;;4975902;28;20042;-50
2023/07/06 09:02:41;;;;;;;10.95;6.82;;;19.50;99.90;;;;;;4987190;28;20121;-55
2023/07/06 09:05:13;;;;;;;9.65;6.30;;;19.50;99.90;;;;;;4984206;28;20121;-51
2023/07/06 09:07:42;;;;;;;12.35;7.07;;;19.50;99.90;;;;;;4978764;28;20046;-54
2023/07/06 09:10:12;;;;;;;11.90;5.60;;;19.50;99.90;;;;;;4982308;28;20404;-55
2023/07/06 09:12:39;;;;;;;13.95;6.55;;;19.40;99.90;;;;;;4983272;28;20416;-56
2023/07/06 09:15:08;;;;;;;12.38;6.68;;;19.40;99.90;;;;;;4981439;28;20034;-53
2023/07/06 09:17:34;;;;;;;10.93;6.28;;;19.40;99.90;;;;;;4981802;28;20126;-52
2023/07/06 09:20:03;;;;;;;8.75;5.88;;;19.30;99.90;;;;;;4982830;28;20045;-56
2023/07/06 09:22:29;;;;;;;10.48;5.82;;;19.30;99.90;;;;;;4989656;28;20467;-55
2023/07/06 09:25:01;;;;;;;8.93;5.85;;;19.30;99.90;;;;;;4990033;28;20100;-55
2023/07/06 09:27:26;;;;;;;13.10;5.65;;;19.20;99.90;;;;;;4980153;28;20049;-52
2023/07/06 09:30:00;;;;;;;10.98;5.70;;;19.20;99.90;;;;;;4970822;28;20046;-55
2023/07/06 09:32:27;;;;;;;8.80;6.25;;;19.20;99.90;;;;;;4975472;28;20038;-53
2023/07/06 09:35:04;;;;;;;18.23;7.15;;;19.30;99.90;;;;;;4978324;28;20039;-54
2023/07/06 09:37:30;;;;;;;7.63;5.38;;;19.40;99.90;;;;;;4981512;28;20038;-54
2023/07/06 09:40:05;;;;;;;14.75;6.20;;;19.60;99.90;;;;;;4989947;28;20054;-51
2023/07/06 09:42:33;;;;;;;13.13;5.25;;;19.80;99.90;;;;;;4982122;28;20101;-51
2023/07/06 09:45:00;;;;;;;10.18;5.07;;;19.90;99.90;;;;;;4970348;28;20042;-52
2023/07/06 09:47:27;;;;;;;10.15;5.53;;;19.80;99.90;;;;;;4982378;28;20043;-50
2023/07/06 09:50:00;;;;;;;10.73;5.45;;;19.60;99.90;;;;;;4970641;28;20046;-49
2023/07/06 09:52:28;;;;;;;12.38;4.78;;;19.50;99.90;;;;;;4980276;28;20042;-50
2023/07/06 09:55:11;;;;;;;16.58;4.80;;;19.40;99.90;;;;;;4976680;28;20039;-53
2023/07/06 09:57:40;;;;;;;11.02;4.97;;;19.20;99.90;;;;;;4974216;28;20085;-49
2023/07/06 10:00:15;;;;;;;8.15;4.53;;;19.20;99.90;;;;;;4993844;28;20085;-50
2023/07/06 10:02:53;;;;;;;7.95;4.68;;;19.10;99.90;;;;;;4986635;28;20582;-49
2023/07/06 10:05:25;;;;;;;8.15;4.82;;;19.00;99.90;;;;;;4982509;28;20237;-52
2023/07/06 10:08:02;;;;;;;10.32;4.70;;;18.90;99.90;;;;;;4981603;28;20046;-50
2023/07/06 10:11:02;;;;;;;10.43;4.35;;;18.90;99.90;;;;;;4984283;28;20034;-50
2023/07/06 10:13:49;;;;;;;10.68;3.50;;;18.90;99.90;;;;;;4987090;28;20106;-50
2023/07/06 10:16:42;;;;;;;8.88;3.10;;;18.90;99.90;;;;;;4984899;28;20046;-51
2023/07/06 10:19:09;;;;;;;15.32;3.95;;;18.90;99.90;;;;;;4986042;28;20155;-50
2023/07/06 10:22:03;;;;;;;5.55;2.53;;;19.00;99.90;;;;;;4989707;28;20143;-52
2023/07/06 10:24:40;;;;;;;2.78;2.10;;;19.10;99.90;;;;;;4978924;28;20057;-49
2023/07/06 10:27:19;;;;;;;9.25;3.17;;;19.20;99.90;;;;;;4992375;28;20101;-53
2023/07/06 10:29:50;;;;;;;7.68;3.40;;;19.40;99.90;;;;;;4978909;28;20042;-53
2023/07/06 10:32:24;;;;;;;7.68;3.92;;;19.40;99.90;;;;;;4973083;28;20043;-49
2023/07/06 10:35:19;;;;;;;10.95;3.35;;;19.50;99.90;;;;;;4974691;28;20121;-51
2023/07/06 10:37:46;;;;;;;5.90;3.38;;;19.50;99.90;;;;;;4963831;28;20404;-52
2023/07/06 10:40:24;;;;;;;10.13;3.78;;;19.60;99.90;;;;;;4988426;28;20053;-53
2023/07/06 10:43:11;;;;;;;10.52;3.97;;;19.50;99.90;;;;;;4993021;28;20085;-53
2023/07/06 10:45:46;;;;;;;7.72;4.13;;;19.50;99.90;;;;;;4990754;28;20038;-50
2023/07/06 10:48:26;;;;;;;6.93;4.22;;;19.40;99.90;;;;;;4983367;28;20571;-50
2023/07/06 10:51:22;;;;;;;17.80;4.97;;;19.30;99.90;;;;;;4979805;28;20070;-50
2023/07/06 10:54:03;;;;;;;12.68;4.30;;;19.40;99.90;;;;;;4982216;28;20086;-50
2023/07/06 10:56:30;;;;;;;5.78;2.88;;;19.60;99.90;;;;;;4983602;28;20392;-51
2023/07/06 10:59:00;;;;;;;8.57;3.28;;;19.80;99.90;;;;;;4984507;28;20053;-50
2023/07/06 11:01:39;;;;;;;13.57;3.60;;;19.80;99.90;;;;;;4965791;28;20505;-50
2023/07/06 11:04:36;;;;;;;8.27;3.45;;;19.90;99.90;;;;;;4984345;28;20050;-49
2023/07/06 11:07:02;;;;;;;7.30;2.83;;;19.90;99.90;;;;;;4986715;28;20074;-55
2023/07/06 11:09:28;;;;;;;8.52;2.53;;;19.90;99.90;;;;;;4984851;28;20054;-55
2023/07/06 11:11:54;;;;;;;;;;;20.00;99.90;;;;;;4983974;28;20042;-51
2023/07/06 11:14:35;;;;;;;8.90;3.17;;;20.20;99.90;;;;;;4982973;28;19972;-53
2023/07/06 11:17:03;;;;;;;4.47;1.92;;;20.60;99.90;;;;;;4985645;28;20499;-52
2023/07/06 11:19:41;;;;;;;8.23;2.55;;;20.70;99.90;;;;;;4989267;28;20049;-51
2023/07/06 11:22:13;;;;;;;6.75;2.22;;;20.80;99.90;;;;;;4988521;28;20045;-52
2023/07/06 11:24:42;;;;;;;9.20;2.88;;;20.90;99.90;;;;;;4989760;28;20034;-52
2023/07/06 11:27:30;;;;;;;7.38;2.53;;;21.00;99.90;;;;;;4989080;28;20253;-51
2023/07/06 11:30:03;;;;;;;4.70;1.95;;;20.80;99.60;;;;;;4988020;28;20045;-51
2023/07/06 11:32:40;;;;;;;5.53;2.28;;;20.70;99.90;;;;;;4990341;28;20034;-52
2023/07/06 11:35:10;;;;;;;;;;;20.50;99.90;;;;;;4985559;28;20045;-52
2023/07/06 11:37:54;;;;;;;8.88;3.13;;;20.40;99.80;;;;;;4984195;28;19968;-52
2023/07/06 11:40:38;;;;;;;7.60;3.65;;;20.10;99.90;;;;;;4988629;28;20045;-51
2023/07/06 11:43:28;;;;;;;9.07;3.78;;;20.10;99.90;;;;;;4985258;28;20121;-52
2023/07/06 11:46:18;;;;;;;10.13;3.10;;;20.00;99.90;;;;;;4991018;28;20049;-53
2023/07/06 11:48:54;;;;;;;8.98;3.25;;;20.10;99.90;;;;;;4986202;28;20073;-50
2023/07/06 11:51:22;;;;;;;5.95;2.42;;;20.20;99.90;;;;;;4986473;28;20074;-54
2023/07/06 11:53:57;;;;;;;5.82;3.58;;;20.20;99.90;;;;;;4991517;28;20039;-54
2023/07/06 11:56:50;;;;;;;7.05;3.30;;;20.20;99.90;;;;;;4976315;28;20047;-50
2023/07/06 11:59:35;;;;;;;6.60;3.15;;;20.10;99.90;;;;;;4975356;28;20046;-50
2023/07/06 12:02:07;;;;;;;4.72;2.75;;;20.10;99.90;;;;;;4991353;28;20042;-50
2023/07/06 12:04:34;;;;;;;6.28;2.70;;;20.00;99.90;;;;;;4991112;28;20042;-51
2023/07/06 12:07:08;;;;;;;9.52;3.60;;;19.90;99.90;;;;;;4990561;28;20046;-53
2023/07/06 12:09:37;;;;;;;9.48;3.00;;;19.90;99.90;;;;;;4984015;28;20043;-52
2023/07/06 12:12:12;;;;;;;10.18;3.75;;;19.90;99.90;;;;;;4988599;28;20042;-53
2023/07/06 12:14:37;;;;;;;9.73;3.28;;;19.80;99.90;;;;;;4979537;28;20042;-51
2023/07/06 12:17:05;;;;;;;11.35;3.67;;;19.80;99.90;;;;;;4971464;28;20098;-50
2023/07/06 12:19:32;;;;;;;7.40;2.28;;;19.90;99.90;;;;;;4977411;28;20038;-54
2023/07/06 12:21:57;;;;;;;;;;;20.00;99.90;;;;;;4973050;28;20078;-54
2023/07/06 12:24:25;;;;;;;7.05;4.60;;;19.90;99.90;;;;;;4972301;28;19976;-53
2023/07/06 12:26:59;;;;;;;11.93;4.80;;;19.90;99.90;;;;;;4977715;28;20049;-50
2023/07/06 12:29:29;;;;;;;7.70;4.38;;;19.90;99.90;;;;;;4990620;28;20464;-50
2023/07/06 12:32:16;;;;;;;5.43;2.33;;;19.80;99.90;;;;;;4981544;28;20038;-51
2023/07/06 12:34:44;;;;;;;5.35;1.90;;;19.80;99.90;;;;;;4979004;28;20050;-53
2023/07/06 12:37:16;;;;;;;5.35;2.03;;;19.80;99.90;;;;;;4977727;28;20038;-50
2023/07/06 12:39:44;;;;;;;5.53;2.67;;;19.80;99.90;;;;;;4990646;28;20080;-54
2023/07/06 12:42:12;;;;;;;10.38;2.85;;;19.80;99.90;;;;;;4986451;28;20039;-51
2023/07/06 12:44:43;;;;;;;5.55;2.85;;;19.80;99.90;;;;;;4985097;28;20053;-49
2023/07/06 12:47:43;;;;;;;10.75;3.58;;;19.80;99.90;;;;;;4981841;28;20104;-49
2023/07/06 12:50:16;;;;;;;8.13;3.75;;;19.90;99.90;;;;;;4971108;28;20039;-50
2023/07/06 12:52:45;;;;;;;7.95;3.05;;;20.10;99.90;;;;;;4990124;28;20045;-52